Shokyu Maru — JG5288 — position and weather

sailwx.info

Track history (hours):
 
Tides and Currents Weather Stations Pressure Air Temp Water Temp Dewpoint Dewpoint Depression Visibility Wind Speed Wind Dir Waves Ship Positions

Shokyu Maru

Last reported at 2015-Jan-26 12:11 UTC. Time now 2015-Jan-26 16:31 UTC.
Position N 35°35' E 139°56'.

Length 91 m; draft 4 m.

Type: Tanker. MMSI: 431000253.

Date/timePositionNaut miles runAvg speedWind from/ knotsBaromVisibWave heightAir tempDewpointWater temp
2015-Jan-26 12:11N 35°35' E 139°56'0 0.1
2015-Jan-26 09:19N 35°35' E 139°55'7 9.1
2015-Jan-26 08:33N 35°30' E 140°01'1 0.2
2015-Jan-26 04:33N 35°30' E 140°00'6 2.7
2015-Jan-26 02:25N 35°36' E 139°59'2 0.4
2015-Jan-25 21:25N 35°38' E 139°59'4 0.8
2015-Jan-25 16:27N 35°35' E 139°55'0 0.1
2015-Jan-25 15:30N 35°35' E 139°55'0 0.0
2015-Jan-25 14:09N 35°35' E 139°55'0 0.0
2015-Jan-25 13:21N 35°35' E 139°55'0 0.0
2015-Jan-25 12:30N 35°35' E 139°55'0 0.0
2015-Jan-25 11:09N 35°35' E 139°55'0 0.1
2015-Jan-25 10:27N 35°35' E 139°55'9 9.8
2015-Jan-25 09:33N 35°29' E 139°48'8 7.7
2015-Jan-25 08:31N 35°24' E 139°40'0 0.0
2015-Jan-25 07:31N 35°24' E 139°40'0 0.0
2015-Jan-25 06:31N 35°24' E 139°40'0 0.0
2015-Jan-25 05:31N 35°24' E 139°40'0 0.0
2015-Jan-25 04:31N 35°24' E 139°40'2 2.4
2015-Jan-25 03:33N 35°25' E 139°42'1211.9
2015-Jan-25 02:33N 35°33' E 139°53'5 1.1
2015-Jan-24 21:33N 35°37' E 139°57'3 2.5
2015-Jan-24 20:32N 35°36' E 139°55'0 0.0
2015-Jan-24 19:32N 35°36' E 139°55'0 0.0
2015-Jan-24 18:32N 35°36' E 139°55'0 0.0
2015-Jan-24 17:29N 35°36' E 139°55'0 0.0
2015-Jan-24 16:23N 35°36' E 139°55'0 0.0
2015-Jan-24 15:23N 35°36' E 139°55'0 0.0
2015-Jan-24 14:32N 35°36' E 139°55'0 0.1
2015-Jan-24 13:26N 35°36' E 139°55'0 0.0
2015-Jan-24 11:32N 35°36' E 139°55'6 5.8
2015-Jan-24 10:33N 35°31' E 139°50'3 3.4
2015-Jan-24 09:33N 35°31' E 139°46'0 0.0
2015-Jan-24 08:30N 35°31' E 139°46'0 0.0
2015-Jan-24 07:33N 35°31' E 139°46'0 0.1
2015-Jan-24 06:33N 35°31' E 139°46'0 0.0
2015-Jan-24 05:21N 35°31' E 139°46'2 2.3
2015-Jan-24 04:33N 35°30' E 139°44'5 5.2
2015-Jan-24 03:32N 35°31' E 139°51'6 0.9
2015-Jan-23 21:33N 35°35' E 139°55'0 0.1
2015-Jan-23 19:28N 35°35' E 139°55'0 0.0
2015-Jan-23 18:32N 35°35' E 139°55'0 0.0
2015-Jan-23 17:22N 35°35' E 139°55'0 0.0
2015-Jan-23 16:13N 35°35' E 139°55'4 0.5
2015-Jan-23 08:30N 35°32' E 139°58'2 0.5
2015-Jan-23 03:33N 35°30' E 139°59'8 8.1
2015-Jan-23 02:32N 35°38' E 139°59'0 0.1
2015-Jan-22 21:23N 35°38' E 139°59'4 3.4
2015-Jan-22 20:17N 35°35' E 139°55'0 0.1
2015-Jan-22 18:32N 35°35' E 139°55'0 0.0
2015-Jan-22 17:32N 35°35' E 139°55'5 0.6
2015-Jan-22 10:14N 35°33' E 140°00'3 0.5
2015-Jan-22 05:16N 35°32' E 140°03'6 7.3
2015-Jan-22 04:28N 35°37' E 139°59'2 0.3
2015-Jan-21 23:15N 35°36' E 139°57'2 0.5
2015-Jan-21 19:17N 35°35' E 139°55'0 0.0
2015-Jan-21 18:14N 35°35' E 139°55'0 0.0
2015-Jan-21 17:23N 35°35' E 139°55'0 0.0
2015-Jan-21 16:20N 35°35' E 139°55'2 1.3
2015-Jan-21 14:33N 35°33' E 139°53'6 6.1
2015-Jan-21 13:33N 35°32' E 139°46'0 0.0
2015-Jan-21 12:33N 35°32' E 139°46'0 0.0
2015-Jan-21 11:33N 35°32' E 139°46'0 0.0
2015-Jan-21 10:33N 35°32' E 139°46'0 0.0
2015-Jan-21 09:33N 35°32' E 139°46'2 2.5
2015-Jan-21 08:33N 35°30' E 139°44'3 3.4
2015-Jan-21 07:32N 35°26' E 139°43'0 0.0
2015-Jan-21 06:32N 35°26' E 139°43'0 0.0
2015-Jan-21 05:29N 35°26' E 139°43'0 0.0
2015-Jan-21 04:32N 35°26' E 139°43'6 6.1
2015-Jan-21 03:33N 35°29' E 139°50'1211.5
2015-Jan-21 02:33N 35°38' E 139°59'0 0.1
2015-Jan-20 21:26N 35°38' E 139°59'4 0.8
2015-Jan-20 16:25N 35°35' E 139°55'7 7.3
2015-Jan-20 15:26N 35°31' E 140°02'0 0.1
2015-Jan-20 14:31N 35°31' E 140°03'0 0.0
2015-Jan-20 12:28N 35°31' E 140°03'0 0.0
2015-Jan-20 11:28N 35°31' E 140°03'0 0.0
2015-Jan-20 10:25N 35°31' E 140°03'0 0.0
2015-Jan-20 09:22N 35°31' E 140°03'0 0.0
2015-Jan-20 07:28N 35°31' E 140°03'1 1.3
2015-Jan-20 06:25N 35°32' E 140°01'7 1.7
2015-Jan-20 02:22N 35°38' E 139°59'0 0.0
2015-Jan-19 21:27N 35°38' E 139°59'4 2.8
2015-Jan-19 20:12N 35°36' E 139°55'0 0.0
2015-Jan-19 19:27N 35°36' E 139°55'0 0.0
2015-Jan-19 18:12N 35°36' E 139°55'0 0.0
2015-Jan-19 16:33N 35°36' E 139°55'0 0.0
2015-Jan-19 15:33N 35°36' E 139°55'0 0.0
2015-Jan-19 10:33N 35°36' E 139°55'8 1.5
2015-Jan-19 05:22N 35°30' E 140°02'6 2.0
2015-Jan-19 02:24N 35°35' E 139°58'2 0.5
2015-Jan-18 21:25N 35°37' E 139°58'4 4.3
2015-Jan-18 20:29N 35°35' E 139°54'0 0.0
2015-Jan-18 19:32N 35°35' E 139°54'0 0.0
2015-Jan-18 17:05N 35°35' E 139°54'0 0.0
2015-Jan-18 16:32N 35°35' E 139°54'0 0.0
2015-Jan-18 15:32N 35°35' E 139°54'0 0.0
2015-Jan-18 14:32N 35°35' E 139°54'0 0.0
2015-Jan-18 13:32N 35°35' E 139°54'0 0.0
2015-Jan-18 12:32N 35°35' E 139°54'5 4.1
2015-Jan-18 11:25N 35°34' E 139°59'2 0.5
2015-Jan-18 06:32N 35°32' E 140°02'7 2.1
2015-Jan-18 03:24N 35°36' E 139°55'0 0.0
2015-Jan-18 02:14N 35°36' E 139°55'1 1.4
2015-Jan-18 01:27N 35°35' E 139°55'0 0.0
2015-Jan-17 17:12N 35°35' E 139°55'3 0.2
2015-Jan-17 04:23N 35°37' E 139°58'1 0.1
2015-Jan-16 23:21N 35°38' E 139°58'4 4.6
2015-Jan-16 22:33N 35°35' E 139°55'0 0.0
2015-Jan-16 21:31N 35°35' E 139°55'0 0.0
2015-Jan-16 17:08N 35°35' E 139°55'0 0.0
2015-Jan-16 16:05N 35°35' E 139°55'0 0.0
2015-Jan-16 14:23N 35°35' E 139°55'0 0.1
2015-Jan-16 13:23N 35°35' E 139°55'0 0.0
2015-Jan-16 12:20N 35°35' E 139°55'  
Track history (hours):
 
Tides and Currents Weather Stations Pressure Air Temp Water Temp Dewpoint Dewpoint Depression Visibility Wind Speed Wind Dir Waves Ship Positions

Shokyu Maru

Last reported at 2015-Jan-26 12:11 UTC. Time now 2015-Jan-26 16:31 UTC.
Position N 35°35' E 139°56'.

Length 91 m; draft 4 m.

Type: Tanker. MMSI: 431000253.

Date/timePositionNaut miles runAvg speedWind from/ knotsBaromVisibWave heightAir tempDewpointWater temp
2015-Jan-26 12:11N 35°35' E 139°56'0 0.1
2015-Jan-26 09:19N 35°35' E 139°55'7 9.1
2015-Jan-26 08:33N 35°30' E 140°01'1 0.2
2015-Jan-26 04:33N 35°30' E 140°00'6 2.7
2015-Jan-26 02:25N 35°36' E 139°59'2 0.4
2015-Jan-25 21:25N 35°38' E 139°59'4 0.8
2015-Jan-25 16:27N 35°35' E 139°55'0 0.1
2015-Jan-25 15:30N 35°35' E 139°55'0 0.0
2015-Jan-25 14:09N 35°35' E 139°55'0 0.0
2015-Jan-25 13:21N 35°35' E 139°55'0 0.0
2015-Jan-25 12:30N 35°35' E 139°55'0 0.0
2015-Jan-25 11:09N 35°35' E 139°55'0 0.1
2015-Jan-25 10:27N 35°35' E 139°55'9 9.8
2015-Jan-25 09:33N 35°29' E 139°48'8 7.7
2015-Jan-25 08:31N 35°24' E 139°40'0 0.0
2015-Jan-25 07:31N 35°24' E 139°40'0 0.0
2015-Jan-25 06:31N 35°24' E 139°40'0 0.0
2015-Jan-25 05:31N 35°24' E 139°40'0 0.0
2015-Jan-25 04:31N 35°24' E 139°40'2 2.4
2015-Jan-25 03:33N 35°25' E 139°42'1211.9
2015-Jan-25 02:33N 35°33' E 139°53'5 1.1
2015-Jan-24 21:33N 35°37' E 139°57'3 2.5
2015-Jan-24 20:32N 35°36' E 139°55'0 0.0
2015-Jan-24 19:32N 35°36' E 139°55'0 0.0
2015-Jan-24 18:32N 35°36' E 139°55'0 0.0
2015-Jan-24 17:29N 35°36' E 139°55'0 0.0
2015-Jan-24 16:23N 35°36' E 139°55'0 0.0
2015-Jan-24 15:23N 35°36' E 139°55'0 0.0
2015-Jan-24 14:32N 35°36' E 139°55'0 0.1
2015-Jan-24 13:26N 35°36' E 139°55'0 0.0
2015-Jan-24 11:32N 35°36' E 139°55'6 5.8
2015-Jan-24 10:33N 35°31' E 139°50'3 3.4
2015-Jan-24 09:33N 35°31' E 139°46'0 0.0
2015-Jan-24 08:30N 35°31' E 139°46'0 0.0
2015-Jan-24 07:33N 35°31' E 139°46'0 0.1
2015-Jan-24 06:33N 35°31' E 139°46'0 0.0
2015-Jan-24 05:21N 35°31' E 139°46'2 2.3
2015-Jan-24 04:33N 35°30' E 139°44'5 5.2
2015-Jan-24 03:32N 35°31' E 139°51'6 0.9
2015-Jan-23 21:33N 35°35' E 139°55'0 0.1
2015-Jan-23 19:28N 35°35' E 139°55'0 0.0
2015-Jan-23 18:32N 35°35' E 139°55'0 0.0
2015-Jan-23 17:22N 35°35' E 139°55'0 0.0
2015-Jan-23 16:13N 35°35' E 139°55'4 0.5
2015-Jan-23 08:30N 35°32' E 139°58'2 0.5
2015-Jan-23 03:33N 35°30' E 139°59'8 8.1
2015-Jan-23 02:32N 35°38' E 139°59'0 0.1
2015-Jan-22 21:23N 35°38' E 139°59'4 3.4
2015-Jan-22 20:17N 35°35' E 139°55'0 0.1
2015-Jan-22 18:32N 35°35' E 139°55'0 0.0
2015-Jan-22 17:32N 35°35' E 139°55'5 0.6
2015-Jan-22 10:14N 35°33' E 140°00'3 0.5
2015-Jan-22 05:16N 35°32' E 140°03'6 7.3
2015-Jan-22 04:28N 35°37' E 139°59'2 0.3
2015-Jan-21 23:15N 35°36' E 139°57'2 0.5
2015-Jan-21 19:17N 35°35' E 139°55'0 0.0
2015-Jan-21 18:14N 35°35' E 139°55'0 0.0
2015-Jan-21 17:23N 35°35' E 139°55'0 0.0
2015-Jan-21 16:20N 35°35' E 139°55'2 1.3
2015-Jan-21 14:33N 35°33' E 139°53'6 6.1
2015-Jan-21 13:33N 35°32' E 139°46'0 0.0
2015-Jan-21 12:33N 35°32' E 139°46'0 0.0
2015-Jan-21 11:33N 35°32' E 139°46'0 0.0
2015-Jan-21 10:33N 35°32' E 139°46'0 0.0
2015-Jan-21 09:33N 35°32' E 139°46'2 2.5
2015-Jan-21 08:33N 35°30' E 139°44'3 3.4
2015-Jan-21 07:32N 35°26' E 139°43'0 0.0
2015-Jan-21 06:32N 35°26' E 139°43'0 0.0
2015-Jan-21 05:29N 35°26' E 139°43'0 0.0
2015-Jan-21 04:32N 35°26' E 139°43'6 6.1
2015-Jan-21 03:33N 35°29' E 139°50'1211.5
2015-Jan-21 02:33N 35°38' E 139°59'0 0.1
2015-Jan-20 21:26N 35°38' E 139°59'4 0.8
2015-Jan-20 16:25N 35°35' E 139°55'7 7.3
2015-Jan-20 15:26N 35°31' E 140°02'0 0.1
2015-Jan-20 14:31N 35°31' E 140°03'0 0.0
2015-Jan-20 12:28N 35°31' E 140°03'0 0.0
2015-Jan-20 11:28N 35°31' E 140°03'0 0.0
2015-Jan-20 10:25N 35°31' E 140°03'0 0.0
2015-Jan-20 09:22N 35°31' E 140°03'0 0.0
2015-Jan-20 07:28N 35°31' E 140°03'1 1.3
2015-Jan-20 06:25N 35°32' E 140°01'7 1.7
2015-Jan-20 02:22N 35°38' E 139°59'0 0.0
2015-Jan-19 21:27N 35°38' E 139°59'4 2.8
2015-Jan-19 20:12N 35°36' E 139°55'0 0.0
2015-Jan-19 19:27N 35°36' E 139°55'0 0.0
2015-Jan-19 18:12N 35°36' E 139°55'0 0.0
2015-Jan-19 16:33N 35°36' E 139°55'0 0.0
2015-Jan-19 15:33N 35°36' E 139°55'0 0.0
2015-Jan-19 10:33N 35°36' E 139°55'8 1.5
2015-Jan-19 05:22N 35°30' E 140°02'6 2.0
2015-Jan-19 02:24N 35°35' E 139°58'2 0.5
2015-Jan-18 21:25N 35°37' E 139°58'4 4.3
2015-Jan-18 20:29N 35°35' E 139°54'0 0.0
2015-Jan-18 19:32N 35°35' E 139°54'0 0.0
2015-Jan-18 17:05N 35°35' E 139°54'0 0.0
2015-Jan-18 16:32N 35°35' E 139°54'0 0.0
2015-Jan-18 15:32N 35°35' E 139°54'0 0.0
2015-Jan-18 14:32N 35°35' E 139°54'0 0.0
2015-Jan-18 13:32N 35°35' E 139°54'0 0.0
2015-Jan-18 12:32N 35°35' E 139°54'5 4.1
2015-Jan-18 11:25N 35°34' E 139°59'2 0.5
2015-Jan-18 06:32N 35°32' E 140°02'7 2.1
2015-Jan-18 03:24N 35°36' E 139°55'0 0.0
2015-Jan-18 02:14N 35°36' E 139°55'1 1.4
2015-Jan-18 01:27N 35°35' E 139°55'0 0.0
2015-Jan-17 17:12N 35°35' E 139°55'3 0.2
2015-Jan-17 04:23N 35°37' E 139°58'1 0.1
2015-Jan-16 23:21N 35°38' E 139°58'4 4.6
2015-Jan-16 22:33N 35°35' E 139°55'0 0.0
2015-Jan-16 21:31N 35°35' E 139°55'0 0.0
2015-Jan-16 17:08N 35°35' E 139°55'0 0.0
2015-Jan-16 16:05N 35°35' E 139°55'0 0.0
2015-Jan-16 14:23N 35°35' E 139°55'0 0.1
2015-Jan-16 13:23N 35°35' E 139°55'0 0.0
2015-Jan-16 12:20N 35°35' E 139°55'  

Dump ship's entire track history